Amherst, New Hampshire
Current Conditions -  °F | °C
As of 1:51 PM on Monday 20 Oct 2014 (Local Time) from KASH Reporting Station
Clear Clear  
Wind Chill: 56°   Ceiling: Unl
Heat Index: 56°   Visibility: 10mi
Dew Point: 30°   Wind: 9mph
Humidity: 37%   Direction: 280°W
Pressure: 29.97"   Gusts: NA
Location:  42.86°N, 71.63°W
Report Text: KASH 201751Z 28008KT 240V320 10SM CLR 13/M01 A2997 RMK AO2 58028 T01331011 10133 20027 SLP399 $
Loading
Personal Weather Stations






























Interactive Weather Map
Tropical Storm Tracking
New forecast layout! Learn more

10-Day Weather Forecast

Advertisements
Track Severe Weather on mobile